sensor_id;sensor_type;location;lat;lon;timestamp;pressure;altitude;pressure_sealevel;temperature;humidity
48089;BME280;33867;50.314;7.802;2023-07-13T00:02:13;100313.22;;;20.81;49.11
48089;BME280;33867;50.314;7.802;2023-07-13T00:05:33;100317.25;;;20.52;49.17
48089;BME280;33867;50.314;7.802;2023-07-13T00:08:52;100320.81;;;20.79;49.06
48089;BME280;33867;50.314;7.802;2023-07-13T00:12:36;100315.16;;;20.73;48.90
48089;BME280;33867;50.314;7.802;2023-07-13T00:15:57;100310.06;;;20.70;48.76
48089;BME280;33867;50.314;7.802;2023-07-13T00:19:17;100318.50;;;20.69;48.90
48089;BME280;33867;50.314;7.802;2023-07-13T00:22:37;100316.19;;;20.59;48.83
48089;BME280;33867;50.314;7.802;2023-07-13T00:25:56;100303.16;;;20.61;48.55
48089;BME280;33867;50.314;7.802;2023-07-13T00:29:16;100309.44;;;20.55;48.51
48089;BME280;33867;50.314;7.802;2023-07-13T00:32:35;100308.19;;;20.64;48.85
48089;BME280;33867;50.314;7.802;2023-07-13T00:35:56;100309.66;;;20.54;48.30
48089;BME280;33867;50.314;7.802;2023-07-13T00:39:15;100303.56;;;20.52;48.41
48089;BME280;33867;50.314;7.802;2023-07-13T00:42:34;100309.03;;;20.45;49.05
48089;BME280;33867;50.314;7.802;2023-07-13T00:46:14;100314.44;;;20.32;49.00
48089;BME280;33867;50.314;7.802;2023-07-13T00:49:35;100312.72;;;20.04;48.93
48089;BME280;33867;50.314;7.802;2023-07-13T00:52:55;100320.28;;;20.02;50.02
48089;BME280;33867;50.314;7.802;2023-07-13T00:56:16;100325.88;;;19.81;49.61
48089;BME280;33867;50.314;7.802;2023-07-13T00:59:39;100326.09;;;19.86;49.64
48089;BME280;33867;50.314;7.802;2023-07-13T01:03:00;100326.94;;;19.80;49.89
48089;BME280;33867;50.314;7.802;2023-07-13T01:06:23;100309.66;;;19.73;49.70
48089;BME280;33867;50.314;7.802;2023-07-13T01:09:43;100313.41;;;19.65;50.30
48089;BME280;33867;50.314;7.802;2023-07-13T01:13:03;100316.66;;;19.47;50.44
48089;BME280;33867;50.314;7.802;2023-07-13T01:16:28;100316.03;;;19.45;50.49
48089;BME280;33867;50.314;7.802;2023-07-13T01:19:48;100319.97;;;19.36;50.14
48089;BME280;33867;50.314;7.802;2023-07-13T01:23:11;100317.25;;;18.74;51.30
48089;BME280;33867;50.314;7.802;2023-07-13T01:26:31;100317.25;;;18.74;51.30
48089;BME280;33867;50.314;7.802;2023-07-13T01:29:52;100323.34;;;18.33;52.50
48089;BME280;33867;50.314;7.802;2023-07-13T01:33:16;100327.91;;;18.11;53.27
48089;BME280;33867;50.314;7.802;2023-07-13T01:36:36;100326.75;;;17.99;53.15
48089;BME280;33867;50.314;7.802;2023-07-13T01:39:55;100331.59;;;18.39;53.08
48089;BME280;33867;50.314;7.802;2023-07-13T01:43:15;100329.25;;;18.36;52.34
48089;BME280;33867;50.314;7.802;2023-07-13T01:46:34;100324.84;;;18.35;52.65
48089;BME280;33867;50.314;7.802;2023-07-13T01:49:53;100333.28;;;18.40;52.63
48089;BME280;33867;50.314;7.802;2023-07-13T01:53:12;100336.44;;;18.23;53.11
48089;BME280;33867;50.314;7.802;2023-07-13T01:56:32;100334.94;;;18.20;53.25
48089;BME280;33867;50.314;7.802;2023-07-13T01:59:51;100343.81;;;18.07;53.84
48089;BME280;33867;50.314;7.802;2023-07-13T02:03:10;100339.41;;;17.70;54.35
48089;BME280;33867;50.314;7.802;2023-07-13T02:06:29;100333.66;;;17.80;54.17
48089;BME280;33867;50.314;7.802;2023-07-13T02:09:48;100348.66;;;17.61;54.33
48089;BME280;33867;50.314;7.802;2023-07-13T02:13:07;100352.88;;;17.64;54.87
48089;BME280;33867;50.314;7.802;2023-07-13T02:16:27;100352.72;;;17.65;54.32
48089;BME280;33867;50.314;7.802;2023-07-13T02:19:46;100348.13;;;17.51;54.90
48089;BME280;33867;50.314;7.802;2023-07-13T02:23:05;100345.13;;;17.31;55.26
48089;BME280;33867;50.314;7.802;2023-07-13T02:26:24;100346.75;;;16.73;57.17
48089;BME280;33867;50.314;7.802;2023-07-13T02:29:43;100353.72;;;16.90;56.67
48089;BME280;33867;50.314;7.802;2023-07-13T02:33:02;100357.41;;;17.12;56.21
48089;BME280;33867;50.314;7.802;2023-07-13T02:36:21;100361.81;;;17.13;56.68
48089;BME280;33867;50.314;7.802;2023-07-13T02:39:40;100364.25;;;17.08;57.05
48089;BME280;33867;50.314;7.802;2023-07-13T02:43:00;100358.56;;;16.80;57.12
48089;BME280;33867;50.314;7.802;2023-07-13T02:46:19;100355.50;;;16.60;57.99
48089;BME280;33867;50.314;7.802;2023-07-13T02:49:38;100363.16;;;16.80;57.07
48089;BME280;33867;50.314;7.802;2023-07-13T02:52:57;100364.06;;;16.49;57.81
48089;BME280;33867;50.314;7.802;2023-07-13T02:56:16;100366.59;;;16.51;57.77
48089;BME280;33867;50.314;7.802;2023-07-13T02:59:36;100357.66;;;16.65;57.87
48089;BME280;33867;50.314;7.802;2023-07-13T03:02:56;100356.72;;;16.35;57.62
48089;BME280;33867;50.314;7.802;2023-07-13T03:06:17;100365.41;;;16.53;57.27
48089;BME280;33867;50.314;7.802;2023-07-13T03:09:40;100360.63;;;16.55;57.25
48089;BME280;33867;50.314;7.802;2023-07-13T03:13:01;100367.75;;;16.56;57.00
48089;BME280;33867;50.314;7.802;2023-07-13T03:16:21;100365.41;;;16.53;57.29
48089;BME280;33867;50.314;7.802;2023-07-13T03:19:42;100370.53;;;16.48;57.53
48089;BME280;33867;50.314;7.802;2023-07-13T03:23:03;100374.16;;;16.41;57.51
48089;BME280;33867;50.314;7.802;2023-07-13T03:26:24;100383.69;;;16.14;58.57
48089;BME280;33867;50.314;7.802;2023-07-13T03:29:43;100385.34;;;16.23;57.97
48089;BME280;33867;50.314;7.802;2023-07-13T03:33:07;100384.22;;;16.32;58.08
48089;BME280;33867;50.314;7.802;2023-07-13T03:36:28;100384.59;;;16.29;57.79
48089;BME280;33867;50.314;7.802;2023-07-13T03:39:50;100385.63;;;16.28;57.97
48089;BME280;33867;50.314;7.802;2023-07-13T03:43:11;100381.16;;;16.12;58.59
48089;BME280;33867;50.314;7.802;2023-07-13T03:46:31;100393.50;;;15.84;59.67
48089;BME280;33867;50.314;7.802;2023-07-13T03:49:51;100392.59;;;15.99;58.59
48089;BME280;33867;50.314;7.802;2023-07-13T03:53:10;100389.50;;;16.02;58.84
48089;BME280;33867;50.314;7.802;2023-07-13T03:56:30;100386.53;;;15.89;59.57
48089;BME280;33867;50.314;7.802;2023-07-13T03:59:50;100398.03;;;15.99;58.90
48089;BME280;33867;50.314;7.802;2023-07-13T04:03:09;100406.47;;;16.04;58.93
48089;BME280;33867;50.314;7.802;2023-07-13T04:06:31;100392.22;;;16.02;59.30
48089;BME280;33867;50.314;7.802;2023-07-13T04:09:50;100399.00;;;16.06;59.18
48089;BME280;33867;50.314;7.802;2023-07-13T04:13:10;100405.81;;;16.02;59.18
48089;BME280;33867;50.314;7.802;2023-07-13T04:16:30;100410.75;;;15.99;59.02
48089;BME280;33867;50.314;7.802;2023-07-13T04:19:49;100415.19;;;15.92;59.61
48089;BME280;33867;50.314;7.802;2023-07-13T04:23:09;100414.75;;;15.80;60.62
48089;BME280;33867;50.314;7.802;2023-07-13T04:26:29;100417.75;;;15.85;60.34
48089;BME280;33867;50.314;7.802;2023-07-13T04:29:48;100416.69;;;15.94;59.95
48089;BME280;33867;50.314;7.802;2023-07-13T04:33:08;100421.09;;;15.95;59.73
48089;BME280;33867;50.314;7.802;2023-07-13T04:36:27;100429.78;;;15.91;60.09
48089;BME280;33867;50.314;7.802;2023-07-13T04:39:47;100432.16;;;15.94;60.51
48089;BME280;33867;50.314;7.802;2023-07-13T04:43:06;100429.06;;;15.97;60.11
48089;BME280;33867;50.314;7.802;2023-07-13T04:46:25;100428.13;;;15.82;60.55
48089;BME280;33867;50.314;7.802;2023-07-13T04:49:45;100427.28;;;15.81;60.69
48089;BME280;33867;50.314;7.802;2023-07-13T04:53:04;100434.59;;;15.72;61.05
48089;BME280;33867;50.314;7.802;2023-07-13T04:56:23;100433.44;;;15.67;62.08
48089;BME280;33867;50.314;7.802;2023-07-13T04:59:43;100424.59;;;15.73;61.82
48089;BME280;33867;50.314;7.802;2023-07-13T05:03:03;100430.16;;;15.88;61.74
48089;BME280;33867;50.314;7.802;2023-07-13T05:06:22;100428.63;;;15.85;62.21
48089;BME280;33867;50.314;7.802;2023-07-13T05:09:41;100427.19;;;15.97;62.08
48089;BME280;33867;50.314;7.802;2023-07-13T05:13:00;100425.13;;;16.07;61.94
48089;BME280;33867;50.314;7.802;2023-07-13T05:16:19;100425.66;;;16.03;61.60
48089;BME280;33867;50.314;7.802;2023-07-13T05:19:38;100426.88;;;16.00;61.76
48089;BME280;33867;50.314;7.802;2023-07-13T05:22:58;100426.78;;;16.17;61.47
48089;BME280;33867;50.314;7.802;2023-07-13T05:26:17;100434.56;;;15.89;63.56
48089;BME280;33867;50.314;7.802;2023-07-13T05:29:36;100433.72;;;15.88;62.13
48089;BME280;33867;50.314;7.802;2023-07-13T05:32:56;100433.06;;;15.78;62.60
48089;BME280;33867;50.314;7.802;2023-07-13T05:36:15;100429.53;;;16.08;62.52
48089;BME280;33867;50.314;7.802;2023-07-13T05:39:34;100437.66;;;16.17;62.05
48089;BME280;33867;50.314;7.802;2023-07-13T05:42:53;100435.69;;;16.02;63.80
48089;BME280;33867;50.314;7.802;2023-07-13T05:46:13;100431.16;;;16.26;61.86
48089;BME280;33867;50.314;7.802;2023-07-13T05:49:32;100428.72;;;16.31;63.53
48089;BME280;33867;50.314;7.802;2023-07-13T05:52:51;100430.78;;;17.20;60.52
48089;BME280;33867;50.314;7.802;2023-07-13T05:56:12;100426.53;;;23.43;44.24
48089;BME280;33867;50.314;7.802;2023-07-13T05:59:31;100426.66;;;26.00;37.98
48089;BME280;33867;50.314;7.802;2023-07-13T06:02:51;100423.13;;;28.30;34.13
48089;BME280;33867;50.314;7.802;2023-07-13T06:06:12;100434.63;;;30.04;31.71
48089;BME280;33867;50.314;7.802;2023-07-13T06:09:33;100431.63;;;31.03;28.50
48089;BME280;33867;50.314;7.802;2023-07-13T06:12:55;100424.97;;;32.40;27.60
48089;BME280;33867;50.314;7.802;2023-07-13T06:16:15;100426.72;;;33.14;26.02
48089;BME280;33867;50.314;7.802;2023-07-13T06:19:34;100424.38;;;33.61;25.20
48089;BME280;33867;50.314;7.802;2023-07-13T06:22:54;100424.53;;;34.84;24.41
48089;BME280;33867;50.314;7.802;2023-07-13T06:26:14;100420.28;;;35.84;22.33
48089;BME280;33867;50.314;7.802;2023-07-13T06:29:33;100411.53;;;35.58;22.52
48089;BME280;33867;50.314;7.802;2023-07-13T06:32:55;100419.50;;;36.75;21.12
48089;BME280;33867;50.314;7.802;2023-07-13T06:36:15;100413.84;;;37.11;20.97
48089;BME280;33867;50.314;7.802;2023-07-13T06:39:35;100418.44;;;37.83;20.09
48089;BME280;33867;50.314;7.802;2023-07-13T06:42:54;100425.34;;;37.45;20.21
48089;BME280;33867;50.314;7.802;2023-07-13T06:46:20;100433.91;;;36.18;20.97
48089;BME280;33867;50.314;7.802;2023-07-13T06:49:43;100434.53;;;36.15;21.67
48089;BME280;33867;50.314;7.802;2023-07-13T06:53:02;100436.59;;;34.79;23.07
48089;BME280;33867;50.314;7.802;2023-07-13T06:56:21;100438.84;;;31.65;26.67
48089;BME280;33867;50.314;7.802;2023-07-13T06:59:41;100442.44;;;30.90;26.95
48089;BME280;33867;50.314;7.802;2023-07-13T07:03:03;100430.75;;;31.84;26.39
48089;BME280;33867;50.314;7.802;2023-07-13T07:06:23;100433.63;;;32.88;25.65
48089;BME280;33867;50.314;7.802;2023-07-13T07:09:42;100433.88;;;32.42;25.92
48089;BME280;33867;50.314;7.802;2023-07-13T07:13:02;100438.47;;;32.13;25.74
48089;BME280;33867;50.314;7.802;2023-07-13T07:16:24;100435.22;;;31.60;27.15
48089;BME280;33867;50.314;7.802;2023-07-13T07:19:43;100431.91;;;31.48;27.78
48089;BME280;33867;50.314;7.802;2023-07-13T07:23:05;100438.19;;;28.88;28.80
48089;BME280;33867;50.314;7.802;2023-07-13T07:27:14;100431.72;;;29.78;29.57
48089;BME280;33867;50.314;7.802;2023-07-13T07:30:53;100435.56;;;30.19;29.50
48089;BME280;33867;50.314;7.802;2023-07-13T07:34:15;100436.09;;;30.16;28.47
48089;BME280;33867;50.314;7.802;2023-07-13T07:37:36;100435.81;;;29.65;29.36
48089;BME280;33867;50.314;7.802;2023-07-13T07:54:17;100437.44;;;26.54;33.30
48089;BME280;33867;50.314;7.802;2023-07-13T07:57:44;100451.06;;;27.67;32.40
48089;BME280;33867;50.314;7.802;2023-07-13T08:01:08;100440.19;;;28.21;30.98
48089;BME280;33867;50.314;7.802;2023-07-13T08:04:28;100450.72;;;27.30;32.03
48089;BME280;33867;50.314;7.802;2023-07-13T08:08:05;100435.50;;;28.44;31.33
48089;BME280;33867;50.314;7.802;2023-07-13T08:11:52;100435.63;;;29.45;30.02
48089;BME280;33867;50.314;7.802;2023-07-13T08:15:38;100432.38;;;29.53;28.85
48089;BME280;33867;50.314;7.802;2023-07-13T08:19:00;100437.03;;;29.85;28.57
48089;BME280;33867;50.314;7.802;2023-07-13T08:22:33;100437.56;;;30.39;27.81
48089;BME280;33867;50.314;7.802;2023-07-13T08:29:50;100429.34;;;30.02;28.15
48089;BME280;33867;50.314;7.802;2023-07-13T08:33:23;100431.16;;;29.76;28.29
48089;BME280;33867;50.314;7.802;2023-07-13T08:36:45;100429.50;;;30.33;27.71
48089;BME280;33867;50.314;7.802;2023-07-13T08:40:11;100426.59;;;30.80;26.89
48089;BME280;33867;50.314;7.802;2023-07-13T08:43:36;100434.94;;;30.90;27.36
48089;BME280;33867;50.314;7.802;2023-07-13T08:46:58;100431.63;;;30.93;28.43
48089;BME280;33867;50.314;7.802;2023-07-13T08:50:22;100420.22;;;30.79;26.67
48089;BME280;33867;50.314;7.802;2023-07-13T08:53:48;100424.13;;;31.24;26.80
48089;BME280;33867;50.314;7.802;2023-07-13T08:57:17;100425.50;;;31.37;27.72
48089;BME280;33867;50.314;7.802;2023-07-13T09:04:19;100424.69;;;31.16;28.20
48089;BME280;33867;50.314;7.802;2023-07-13T09:07:58;100408.75;;;30.55;28.10
48089;BME280;33867;50.314;7.802;2023-07-13T09:11:47;100405.91;;;30.40;27.82
48089;BME280;33867;50.314;7.802;2023-07-13T09:15:37;100419.53;;;30.52;27.84
48089;BME280;33867;50.314;7.802;2023-07-13T09:19:03;100417.63;;;30.58;27.31
48089;BME280;33867;50.314;7.802;2023-07-13T09:22:24;100418.25;;;30.90;28.32
48089;BME280;33867;50.314;7.802;2023-07-13T09:25:48;100419.41;;;31.04;27.99
48089;BME280;33867;50.314;7.802;2023-07-13T09:29:21;100421.03;;;30.90;28.00
48089;BME280;33867;50.314;7.802;2023-07-13T09:32:47;100419.94;;;31.17;26.93
48089;BME280;33867;50.314;7.802;2023-07-13T09:36:29;100414.66;;;30.79;27.19
48089;BME280;33867;50.314;7.802;2023-07-13T09:39:49;100409.63;;;31.58;27.24
48089;BME280;33867;50.314;7.802;2023-07-13T09:43:14;100415.00;;;32.29;27.60
48089;BME280;33867;50.314;7.802;2023-07-13T09:46:54;100403.00;;;31.03;26.13
48089;BME280;33867;50.314;7.802;2023-07-13T09:50:23;100405.41;;;31.81;26.35
48089;BME280;33867;50.314;7.802;2023-07-13T09:53:53;100411.47;;;32.03;26.32
48089;BME280;33867;50.314;7.802;2023-07-13T09:57:18;100403.66;;;32.05;26.91
48089;BME280;33867;50.314;7.802;2023-07-13T10:00:38;100396.13;;;32.11;26.93
48089;BME280;33867;50.314;7.802;2023-07-13T10:03:59;100390.84;;;32.04;25.70
48089;BME280;33867;50.314;7.802;2023-07-13T10:07:22;100400.94;;;31.85;26.06
48089;BME280;33867;50.314;7.802;2023-07-13T10:10:43;100401.88;;;31.04;26.61
48089;BME280;33867;50.314;7.802;2023-07-13T10:14:16;100404.06;;;31.53;26.60
48089;BME280;33867;50.314;7.802;2023-07-13T10:17:37;100388.03;;;32.14;25.81
48089;BME280;33867;50.314;7.802;2023-07-13T10:21:21;100393.84;;;32.72;24.70
48089;BME280;33867;50.314;7.802;2023-07-13T10:24:43;100397.75;;;32.71;25.70
48089;BME280;33867;50.314;7.802;2023-07-13T10:28:13;100401.09;;;32.73;24.55
48089;BME280;33867;50.314;7.802;2023-07-13T10:31:39;100401.81;;;31.80;25.41
48089;BME280;33867;50.314;7.802;2023-07-13T10:35:02;100413.59;;;29.65;27.43
48089;BME280;33867;50.314;7.802;2023-07-13T10:38:24;100422.25;;;30.26;27.34
48089;BME280;33867;50.314;7.802;2023-07-13T10:41:52;100394.53;;;30.47;26.94
48089;BME280;33867;50.314;7.802;2023-07-13T10:45:19;100401.22;;;30.51;27.22
48089;BME280;33867;50.314;7.802;2023-07-13T10:48:40;100409.38;;;30.93;26.55
48089;BME280;33867;50.314;7.802;2023-07-13T10:52:06;100403.50;;;30.69;27.28
48089;BME280;33867;50.314;7.802;2023-07-13T10:59:02;100412.69;;;29.23;28.21
48089;BME280;33867;50.314;7.802;2023-07-13T11:02:30;100416.16;;;29.72;28.64
48089;BME280;33867;50.314;7.802;2023-07-13T11:06:17;100410.47;;;29.52;28.34
48089;BME280;33867;50.314;7.802;2023-07-13T11:10:05;100407.75;;;28.66;27.37
48089;BME280;33867;50.314;7.802;2023-07-13T11:14:01;100409.75;;;29.34;26.46
48089;BME280;33867;50.314;7.802;2023-07-13T11:20:49;100412.81;;;29.75;27.75
48089;BME280;33867;50.314;7.802;2023-07-13T11:24:17;100413.63;;;29.33;28.23
48089;BME280;33867;50.314;7.802;2023-07-13T11:27:45;100409.16;;;28.95;27.59
48089;BME280;33867;50.314;7.802;2023-07-13T11:31:38;100411.44;;;28.76;28.50
48089;BME280;33867;50.314;7.802;2023-07-13T11:35:14;100414.69;;;28.68;27.97
48089;BME280;33867;50.314;7.802;2023-07-13T11:38:56;100418.19;;;28.86;28.20
48089;BME280;33867;50.314;7.802;2023-07-13T11:42:31;100420.28;;;29.00;27.59
48089;BME280;33867;50.314;7.802;2023-07-13T11:46:18;100425.66;;;29.12;27.67
48089;BME280;33867;50.314;7.802;2023-07-13T11:49:52;100426.31;;;29.24;28.02
48089;BME280;33867;50.314;7.802;2023-07-13T11:53:12;100415.88;;;29.74;28.61
48089;BME280;33867;50.314;7.802;2023-07-13T11:56:32;100426.63;;;29.65;27.85
48089;BME280;33867;50.314;7.802;2023-07-13T11:59:55;100437.66;;;29.23;28.20
48089;BME280;33867;50.314;7.802;2023-07-13T12:03:19;100432.84;;;28.54;28.45
48089;BME280;33867;50.314;7.802;2023-07-13T12:06:39;100432.88;;;28.15;28.91
48089;BME280;33867;50.314;7.802;2023-07-13T12:10:22;100439.22;;;28.11;29.39
48089;BME280;33867;50.314;7.802;2023-07-13T12:13:43;100444.31;;;28.41;29.99
48089;BME280;33867;50.314;7.802;2023-07-13T12:17:29;100443.59;;;28.50;30.15
48089;BME280;33867;50.314;7.802;2023-07-13T12:20:50;100434.50;;;28.55;29.93
48089;BME280;33867;50.314;7.802;2023-07-13T12:24:17;100434.94;;;28.25;29.11
48089;BME280;33867;50.314;7.802;2023-07-13T12:27:37;100438.00;;;28.45;29.98
48089;BME280;33867;50.314;7.802;2023-07-13T12:31:02;100443.81;;;28.44;29.65
48089;BME280;33867;50.314;7.802;2023-07-13T12:34:23;100446.22;;;28.40;29.71
48089;BME280;33867;50.314;7.802;2023-07-13T12:37:43;100456.81;;;28.92;29.99
48089;BME280;33867;50.314;7.802;2023-07-13T12:41:08;100460.16;;;28.94;29.70
48089;BME280;33867;50.314;7.802;2023-07-13T12:44:30;100464.09;;;28.76;28.90
48089;BME280;33867;50.314;7.802;2023-07-13T12:47:54;100460.56;;;28.81;28.73
48089;BME280;33867;50.314;7.802;2023-07-13T12:51:15;100462.81;;;28.35;29.26
48089;BME280;33867;50.314;7.802;2023-07-13T12:54:38;100459.13;;;28.30;29.10
48089;BME280;33867;50.314;7.802;2023-07-13T12:58:03;100471.59;;;28.10;29.35
48089;BME280;33867;50.314;7.802;2023-07-13T13:01:27;100475.06;;;28.01;28.95
48089;BME280;33867;50.314;7.802;2023-07-13T13:04:47;100471.28;;;28.07;29.58
48089;BME280;33867;50.314;7.802;2023-07-13T13:08:10;100465.06;;;28.00;29.19
48089;BME280;33867;50.314;7.802;2023-07-13T13:11:31;100462.56;;;27.98;29.39
48089;BME280;33867;50.314;7.802;2023-07-13T13:14:51;100461.66;;;28.14;29.63
48089;BME280;33867;50.314;7.802;2023-07-13T13:18:17;100476.72;;;28.02;30.12
48089;BME280;33867;50.314;7.802;2023-07-13T13:21:37;100485.22;;;27.95;30.10
48089;BME280;33867;50.314;7.802;2023-07-13T13:24:56;100472.69;;;27.71;29.54
48089;BME280;33867;50.314;7.802;2023-07-13T13:28:19;100486.75;;;27.52;29.12
48089;BME280;33867;50.314;7.802;2023-07-13T13:31:39;100481.38;;;27.46;29.40
48089;BME280;33867;50.314;7.802;2023-07-13T13:34:58;100484.75;;;27.64;29.69
48089;BME280;33867;50.314;7.802;2023-07-13T13:38:21;100475.09;;;27.50;29.62
48089;BME280;33867;50.314;7.802;2023-07-13T13:41:42;100473.25;;;27.56;30.07
48089;BME280;33867;50.314;7.802;2023-07-13T13:45:15;100481.31;;;27.41;29.81
48089;BME280;33867;50.314;7.802;2023-07-13T13:48:37;100491.78;;;27.38;30.56
48089;BME280;33867;50.314;7.802;2023-07-13T13:51:59;100483.13;;;27.18;30.27
48089;BME280;33867;50.314;7.802;2023-07-13T13:55:20;100484.19;;;27.00;29.63
48089;BME280;33867;50.314;7.802;2023-07-13T13:58:40;100485.03;;;27.01;29.82
48089;BME280;33867;50.314;7.802;2023-07-13T14:01:59;100482.56;;;27.16;29.97
48089;BME280;33867;50.314;7.802;2023-07-13T14:05:24;100478.38;;;27.14;29.36
48089;BME280;33867;50.314;7.802;2023-07-13T14:08:46;100495.94;;;27.07;29.13
48089;BME280;33867;50.314;7.802;2023-07-13T14:12:09;100487.94;;;27.39;29.95
48089;BME280;33867;50.314;7.802;2023-07-13T14:15:30;100487.84;;;27.85;29.37
48089;BME280;33867;50.314;7.802;2023-07-13T14:18:49;100482.56;;;28.05;29.75
48089;BME280;33867;50.314;7.802;2023-07-13T14:22:08;100481.50;;;28.06;29.06
48089;BME280;33867;50.314;7.802;2023-07-13T14:25:28;100483.81;;;28.14;28.91
48089;BME280;33867;50.314;7.802;2023-07-13T14:28:49;100474.56;;;28.25;29.21
48089;BME280;33867;50.314;7.802;2023-07-13T14:32:37;100477.66;;;27.90;27.91
48089;BME280;33867;50.314;7.802;2023-07-13T14:36:33;100470.78;;;29.02;27.81
48089;BME280;33867;50.314;7.802;2023-07-13T14:40:25;100461.66;;;27.92;29.69
48089;BME280;33867;50.314;7.802;2023-07-13T14:43:44;100461.94;;;27.74;29.35
48089;BME280;33867;50.314;7.802;2023-07-13T14:47:05;100467.59;;;28.01;29.32
48089;BME280;33867;50.314;7.802;2023-07-13T14:50:31;100463.78;;;27.68;28.37
48089;BME280;33867;50.314;7.802;2023-07-13T14:53:51;100469.09;;;28.09;29.59
48089;BME280;33867;50.314;7.802;2023-07-13T14:57:12;100479.31;;;28.08;30.00
48089;BME280;33867;50.314;7.802;2023-07-13T15:00:31;100469.16;;;27.75;29.17
48089;BME280;33867;50.314;7.802;2023-07-13T15:03:52;100474.50;;;27.82;29.42
48089;BME280;33867;50.314;7.802;2023-07-13T15:07:12;100470.00;;;27.76;28.74
48089;BME280;33867;50.314;7.802;2023-07-13T15:10:34;100470.31;;;27.62;29.96
48089;BME280;33867;50.314;7.802;2023-07-13T15:13:55;100459.59;;;27.83;29.04
48089;BME280;33867;50.314;7.802;2023-07-13T15:17:45;100456.84;;;27.16;28.86
48089;BME280;33867;50.314;7.802;2023-07-13T15:25:47;100471.16;;;27.63;29.21
48089;BME280;33867;50.314;7.802;2023-07-13T15:29:06;100469.31;;;27.85;28.85
48089;BME280;33867;50.314;7.802;2023-07-13T15:32:36;100463.03;;;28.12;28.76
48089;BME280;33867;50.314;7.802;2023-07-13T15:36:04;100464.66;;;28.30;29.17
48089;BME280;33867;50.314;7.802;2023-07-13T15:39:24;100455.88;;;28.16;28.82
48089;BME280;33867;50.314;7.802;2023-07-13T15:42:44;100455.97;;;28.21;28.36
48089;BME280;33867;50.314;7.802;2023-07-13T15:46:03;100461.09;;;28.12;29.21
48089;BME280;33867;50.314;7.802;2023-07-13T15:49:23;100459.47;;;28.33;28.88
48089;BME280;33867;50.314;7.802;2023-07-13T15:52:44;100455.38;;;28.41;28.61
48089;BME280;33867;50.314;7.802;2023-07-13T15:56:19;100455.88;;;28.16;29.72
48089;BME280;33867;50.314;7.802;2023-07-13T15:59:39;100454.69;;;27.90;29.39
48089;BME280;33867;50.314;7.802;2023-07-13T16:02:59;100450.66;;;28.63;28.68
48089;BME280;33867;50.314;7.802;2023-07-13T16:06:28;100452.38;;;28.69;28.50
48089;BME280;33867;50.314;7.802;2023-07-13T16:09:48;100451.56;;;28.25;28.44
48089;BME280;33867;50.314;7.802;2023-07-13T16:13:19;100454.75;;;27.73;29.47
48089;BME280;33867;50.314;7.802;2023-07-13T16:16:39;100456.50;;;27.62;30.03
48089;BME280;33867;50.314;7.802;2023-07-13T16:19:59;100445.19;;;27.47;30.14
48089;BME280;33867;50.314;7.802;2023-07-13T16:23:19;100447.28;;;27.74;29.96
48089;BME280;33867;50.314;7.802;2023-07-13T16:27:32;100444.91;;;27.82;29.79
48089;BME280;33867;50.314;7.802;2023-07-13T16:30:53;100448.59;;;27.54;29.51
48089;BME280;33867;50.314;7.802;2023-07-13T16:34:47;100440.25;;;27.49;29.93
48089;BME280;33867;50.314;7.802;2023-07-13T16:38:16;100447.06;;;27.25;30.76
48089;BME280;33867;50.314;7.802;2023-07-13T16:41:37;100445.78;;;27.16;31.08
48089;BME280;33867;50.314;7.802;2023-07-13T16:45:01;100438.91;;;27.01;31.78
48089;BME280;33867;50.314;7.802;2023-07-13T16:48:25;100446.28;;;26.84;31.06
48089;BME280;33867;50.314;7.802;2023-07-13T16:51:51;100445.44;;;26.67;30.65
48089;BME280;33867;50.314;7.802;2023-07-13T16:55:12;100442.16;;;26.70;30.94
48089;BME280;33867;50.314;7.802;2023-07-13T16:58:34;100446.78;;;26.64;31.50
48089;BME280;33867;50.314;7.802;2023-07-13T17:06:49;100449.53;;;26.64;31.87
48089;BME280;33867;50.314;7.802;2023-07-13T17:10:36;100439.50;;;26.35;31.65
48089;BME280;33867;50.314;7.802;2023-07-13T17:13:56;100441.50;;;26.11;31.98
48089;BME280;33867;50.314;7.802;2023-07-13T17:17:18;100443.97;;;25.72;32.48
48089;BME280;33867;50.314;7.802;2023-07-13T17:20:58;100448.38;;;25.50;32.30
48089;BME280;33867;50.314;7.802;2023-07-13T17:24:36;100446.34;;;25.80;32.94
48089;BME280;33867;50.314;7.802;2023-07-13T17:27:56;100454.53;;;25.75;32.67
48089;BME280;33867;50.314;7.802;2023-07-13T17:31:18;100442.03;;;25.84;33.23
48089;BME280;33867;50.314;7.802;2023-07-13T17:35:01;100446.47;;;25.85;33.24
48089;BME280;33867;50.314;7.802;2023-07-13T17:42:35;100449.09;;;25.92;32.75
48089;BME280;33867;50.314;7.802;2023-07-13T17:46:27;100450.72;;;26.16;32.83
48089;BME280;33867;50.314;7.802;2023-07-13T17:49:47;100454.94;;;26.19;33.18
48089;BME280;33867;50.314;7.802;2023-07-13T17:53:30;100450.00;;;26.21;33.23
48089;BME280;33867;50.314;7.802;2023-07-13T17:56:52;100453.72;;;26.15;32.61
48089;BME280;33867;50.314;7.802;2023-07-13T18:00:11;100460.50;;;25.96;33.86
48089;BME280;33867;50.314;7.802;2023-07-13T18:03:47;100454.03;;;25.78;33.97
48089;BME280;33867;50.314;7.802;2023-07-13T18:07:10;100459.66;;;25.48;34.56
48089;BME280;33867;50.314;7.802;2023-07-13T18:10:33;100457.34;;;25.33;35.61
48089;BME280;33867;50.314;7.802;2023-07-13T18:13:52;100462.38;;;25.13;35.58
48089;BME280;33867;50.314;7.802;2023-07-13T18:17:13;100460.09;;;25.10;35.79
48089;BME280;33867;50.314;7.802;2023-07-13T18:20:33;100467.88;;;25.13;35.64
48089;BME280;33867;50.314;7.802;2023-07-13T18:23:53;100466.19;;;25.12;35.88
48089;BME280;33867;50.314;7.802;2023-07-13T18:27:31;100470.47;;;25.08;36.44
48089;BME280;33867;50.314;7.802;2023-07-13T18:31:33;100468.16;;;24.93;36.94